Doran, Virginia
Current Conditions -  °F | °C
As of 10:55 PM on Friday 19 Dec 2014 (Local Time) from KJFZ Reporting Station
Clear Clear  
Wind Chill: 22°   Ceiling: Unl
Heat Index: 28°   Visibility: 10mi
Dew Point: 22°   Wind: 6mph
Humidity: 77%   Direction: 40°NE
Pressure: 30.14"   Gusts: NA
Location:  37.09°N, 81.83°W
Report Text: KJFZ 200355Z AUTO 04005KT 10SM CLR M02/M06 A3014 RMK AO2 T10211056
Loading
Personal Weather Stations






























Interactive Weather Map New forecast layout! Learn more

10-Day Weather Forecast

Advertisements
Track Severe Weather on mobile